Time;durP1;ratioP1;P1;durP2;ratioP2;P2;SDS_P1;SDS_P2;PMS_P1;PMS_P2;Temp;Humidity;BMP_temperature;BMP_pressure;BME280_temperature;BME280_humidity;BME280_pressure;Samples;Min_cycle;Max_cycle;Signal;HPM_P1;HPM_P2
2022/06/16 00:02:09;;;;;;;0.20;0.20;;;;;;;;;;5052934;28;20108;-71
2022/06/16 00:04:38;;;;;;;0.57;0.57;;;;;;;;;;5052520;28;20048;-71
2022/06/16 00:07:06;;;;;;;0.00;0.00;;;;;;;;;;5043406;28;20564;-71
2022/06/16 00:09:36;;;;;;;0.03;0.03;;;;;;;;;;5013029;28;20081;-71
2022/06/16 00:12:05;;;;;;;0.10;0.10;;;;;;;;;;5027304;28;20148;-71
2022/06/16 00:14:34;;;;;;;0.03;0.03;;;;;;;;;;5032865;28;20049;-71
2022/06/16 00:17:02;;;;;;;0.00;0.00;;;;;;;;;;5032266;28;20560;-71
2022/06/16 00:19:30;;;;;;;0.20;0.20;;;;;;;;;;5032596;28;20132;-71
2022/06/16 00:21:59;;;;;;;0.00;0.00;;;;;;;;;;5033121;28;20049;-71
2022/06/16 00:24:27;;;;;;;0.40;0.40;;;;;;;;;;5025640;28;20080;-71
2022/06/16 00:26:58;;;;;;;0.10;0.10;;;;;;;;;;5012062;28;20053;-71
2022/06/16 00:29:26;;;;;;;0.40;0.40;;;;;;;;;;5012913;28;20054;-71
2022/06/16 00:31:55;;;;;;;0.00;0.00;;;;;;;;;;5012930;28;20149;-71
2022/06/16 00:34:24;;;;;;;0.00;0.00;;;;;;;;;;5012707;28;20410;-71
2022/06/16 00:36:52;;;;;;;0.30;0.30;;;;;;;;;;5011891;28;20088;-71
2022/06/16 00:39:21;;;;;;;0.10;0.10;;;;;;;;;;5012137;28;20050;-71
2022/06/16 00:41:49;;;;;;;0.00;0.00;;;;;;;;;;5027269;28;20046;-71
2022/06/16 00:44:38;;;;;;;0.75;0.75;;;;;;;;;;5012897;28;20132;-71
2022/06/16 00:47:06;;;;;;;0.30;0.30;;;;;;;;;;5011750;28;20549;-72
2022/06/16 00:49:35;;;;;;;0.30;0.28;;;;;;;;;;5012205;28;20401;-72
2022/06/16 00:52:07;;;;;;;0.40;0.40;;;;;;;;;;5026293;28;20156;-72
2022/06/16 00:54:39;;;;;;;0.10;0.10;;;;;;;;;;5032272;28;20058;-72
2022/06/16 00:57:13;;;;;;;0.10;0.10;;;;;;;;;;5031543;28;20135;-72
2022/06/16 00:59:43;;;;;;;0.00;0.00;;;;;;;;;;5014637;28;20124;-72
2022/06/16 01:02:18;;;;;;;0.13;0.13;;;;;;;;;;5012054;28;20521;-72
2022/06/16 01:04:51;;;;;;;0.13;0.13;;;;;;;;;;5012115;28;20045;-72
2022/06/16 01:07:22;;;;;;;0.35;0.35;;;;;;;;;;5011801;28;20053;-72
2022/06/16 01:09:51;;;;;;;0.65;0.52;;;;;;;;;;5012378;28;20504;-72
2022/06/16 01:15:20;;;;;;;0.00;0.00;;;;;;;;;;5026962;28;20045;-72
2022/06/16 01:17:54;;;;;;;0.10;0.10;;;;;;;;;;5011559;28;20111;-72
2022/06/16 01:20:29;;;;;;;0.10;0.10;;;;;;;;;;5011541;28;20137;-72
2022/06/16 01:23:12;;;;;;;0.22;0.22;;;;;;;;;;5011758;28;20049;-72
2022/06/16 01:25:47;;;;;;;0.70;0.52;;;;;;;;;;4995818;28;20041;-72
2022/06/16 01:28:20;;;;;;;0.05;0.05;;;;;;;;;;5011260;28;20129;-72
2022/06/16 01:30:54;;;;;;;0.32;0.32;;;;;;;;;;5011386;28;20153;-72
2022/06/16 01:33:25;;;;;;;0.75;0.52;;;;;;;;;;5011840;28;20042;-72
2022/06/16 01:35:57;;;;;;;0.10;0.10;;;;;;;;;;5011786;28;20096;-72
2022/06/16 01:38:29;;;;;;;0.17;0.17;;;;;;;;;;5011416;28;20410;-72
2022/06/16 01:41:01;;;;;;;0.10;0.10;;;;;;;;;;5011347;28;20049;-72
2022/06/16 01:43:31;;;;;;;0.70;0.70;;;;;;;;;;5011567;28;20557;-72
2022/06/16 01:46:06;;;;;;;0.32;0.32;;;;;;;;;;5011181;28;20045;-72
2022/06/16 01:48:36;;;;;;;0.32;0.32;;;;;;;;;;5011185;28;20136;-72
2022/06/16 01:51:10;;;;;;;0.00;0.00;;;;;;;;;;5030504;28;20136;-72
2022/06/16 01:53:40;;;;;;;2.38;1.27;;;;;;;;;;5037200;28;20093;-72
2022/06/16 01:56:13;;;;;;;0.00;0.00;;;;;;;;;;5050841;28;20052;-72
2022/06/16 01:58:43;;;;;;;1.35;1.00;;;;;;;;;;5050448;28;20049;-72
2022/06/16 02:01:15;;;;;;;0.00;0.00;;;;;;;;;;5032602;28;20084;-72
2022/06/16 02:03:46;;;;;;;0.30;0.30;;;;;;;;;;5031193;28;20057;-72
2022/06/16 02:06:17;;;;;;;0.10;0.10;;;;;;;;;;5025893;28;20100;-72
2022/06/16 02:08:47;;;;;;;0.20;0.20;;;;;;;;;;5025882;28;20477;-72
2022/06/16 02:11:17;;;;;;;0.10;0.10;;;;;;;;;;5031061;28;20049;-72
2022/06/16 02:13:47;;;;;;;0.22;0.22;;;;;;;;;;5031153;28;20100;-72
2022/06/16 02:16:18;;;;;;;0.17;0.17;;;;;;;;;;5031042;28;20092;-72
2022/06/16 02:18:47;;;;;;;0.08;0.08;;;;;;;;;;5030156;28;20560;-72
2022/06/16 02:21:19;;;;;;;0.00;0.00;;;;;;;;;;5030689;28;20132;-72
2022/06/16 02:23:47;;;;;;;0.15;0.15;;;;;;;;;;5020944;28;20521;-72
2022/06/16 02:26:16;;;;;;;0.00;0.00;;;;;;;;;;5010917;28;20125;-72
2022/06/16 02:28:45;;;;;;;0.45;0.45;;;;;;;;;;5011050;28;20077;-72
2022/06/16 02:31:29;;;;;;;0.13;0.13;;;;;;;;;;5010985;28;20049;-72
2022/06/16 02:34:04;;;;;;;0.00;0.00;;;;;;;;;;5012540;28;20097;-72
2022/06/16 02:36:39;;;;;;;0.10;0.10;;;;;;;;;;5015004;28;20633;-69
2022/06/16 02:39:17;;;;;;;0.75;0.57;;;;;;;;;;4985339;28;20123;-70
2022/06/16 02:41:49;;;;;;;0.03;0.03;;;;;;;;;;5017173;28;20145;-70
2022/06/16 02:44:22;;;;;;;0.25;0.25;;;;;;;;;;5014698;28;20086;-69
2022/06/16 02:46:58;;;;;;;0.00;0.00;;;;;;;;;;5014199;28;20046;-69
2022/06/16 02:49:31;;;;;;;0.00;0.00;;;;;;;;;;5015124;28;20057;-69
2022/06/16 02:52:06;;;;;;;0.00;0.00;;;;;;;;;;5027927;28;20083;-69
2022/06/16 02:54:40;;;;;;;0.20;0.20;;;;;;;;;;5034631;28;20053;-70
2022/06/16 02:57:12;;;;;;;0.00;0.00;;;;;;;;;;5028858;28;20549;-69
2022/06/16 02:59:42;;;;;;;0.00;0.00;;;;;;;;;;5014742;28;20132;-70
2022/06/16 03:02:15;;;;;;;0.17;0.17;;;;;;;;;;5014604;28;20128;-70
2022/06/16 03:04:47;;;;;;;0.10;0.10;;;;;;;;;;5014294;28;20054;-70
2022/06/16 03:07:16;;;;;;;0.00;0.00;;;;;;;;;;5013657;28;20132;-70
2022/06/16 03:09:44;;;;;;;0.43;0.43;;;;;;;;;;5014235;28;20088;-69
2022/06/16 03:12:13;;;;;;;0.10;0.10;;;;;;;;;;5029937;28;20041;-70
2022/06/16 03:14:43;;;;;;;0.10;0.10;;;;;;;;;;5024823;28;20117;-69
2022/06/16 03:17:13;;;;;;;0.00;0.00;;;;;;;;;;5013520;28;20052;-69
2022/06/16 03:19:41;;;;;;;0.00;0.00;;;;;;;;;;5014173;28;20042;-69
2022/06/16 03:22:10;;;;;;;0.28;0.28;;;;;;;;;;5013913;28;20097;-69
2022/06/16 03:24:39;;;;;;;0.00;0.00;;;;;;;;;;5014207;28;20062;-69
2022/06/16 03:27:08;;;;;;;0.00;0.00;;;;;;;;;;5013415;28;20129;-70
2022/06/16 03:29:36;;;;;;;0.00;0.00;;;;;;;;;;5014530;28;20136;-69
2022/06/16 03:32:05;;;;;;;0.00;0.00;;;;;;;;;;5015130;28;20124;-69
2022/06/16 03:34:36;;;;;;;0.00;0.00;;;;;;;;;;5015296;28;20046;-69
2022/06/16 03:37:04;;;;;;;0.00;0.00;;;;;;;;;;5013819;28;20132;-70
2022/06/16 03:39:32;;;;;;;0.20;0.20;;;;;;;;;;5013720;28;20490;-70
2022/06/16 03:42:01;;;;;;;0.20;0.20;;;;;;;;;;5014261;28;20054;-70
2022/06/16 03:44:29;;;;;;;0.20;0.20;;;;;;;;;;5014144;28;20664;-70
2022/06/16 03:46:58;;;;;;;0.00;0.00;;;;;;;;;;5012593;28;20041;-70
2022/06/16 03:49:26;;;;;;;0.32;0.32;;;;;;;;;;5013833;28;20050;-69
2022/06/16 03:51:56;;;;;;;0.00;0.00;;;;;;;;;;5018546;28;20050;-70
2022/06/16 03:54:24;;;;;;;0.20;0.20;;;;;;;;;;5045642;28;20096;-69
2022/06/16 03:56:52;;;;;;;0.47;0.47;;;;;;;;;;5052536;28;20436;-70
2022/06/16 03:59:21;;;;;;;0.00;0.00;;;;;;;;;;5053543;28;20088;-69
2022/06/16 04:01:50;;;;;;;0.08;0.08;;;;;;;;;;5052980;28;20044;-69
2022/06/16 04:04:25;;;;;;;0.00;0.00;;;;;;;;;;5053075;28;20049;-70
2022/06/16 04:06:55;;;;;;;0.10;0.10;;;;;;;;;;5014824;28;20128;-69
2022/06/16 04:09:23;;;;;;;0.05;0.05;;;;;;;;;;5013353;28;20129;-70
2022/06/16 04:11:52;;;;;;;0.30;0.30;;;;;;;;;;5025174;28;20045;-70
2022/06/16 04:14:20;;;;;;;0.10;0.10;;;;;;;;;;5033350;28;20093;-69
2022/06/16 04:16:49;;;;;;;0.10;0.10;;;;;;;;;;5032648;28;20555;-70
2022/06/16 04:19:19;;;;;;;0.00;0.00;;;;;;;;;;5033113;28;20053;-70
2022/06/16 04:21:47;;;;;;;0.00;0.00;;;;;;;;;;5031259;28;20149;-70
2022/06/16 04:24:18;;;;;;;0.00;0.00;;;;;;;;;;5013448;28;20046;-70
2022/06/16 04:26:47;;;;;;;0.00;0.00;;;;;;;;;;5012675;28;20081;-70
2022/06/16 04:29:17;;;;;;;0.00;0.00;;;;;;;;;;5013099;28;20089;-70
2022/06/16 04:31:45;;;;;;;0.45;0.45;;;;;;;;;;5013234;28;20046;-70
2022/06/16 04:34:14;;;;;;;0.00;0.00;;;;;;;;;;5013324;28;20136;-69
2022/06/16 04:36:43;;;;;;;0.00;0.00;;;;;;;;;;5011910;28;20498;-70
2022/06/16 04:39:11;;;;;;;0.10;0.10;;;;;;;;;;5012772;28;20476;-70
2022/06/16 04:41:41;;;;;;;0.00;0.00;;;;;;;;;;5012878;28;20050;-70
2022/06/16 04:44:09;;;;;;;0.20;0.20;;;;;;;;;;5012897;28;20147;-70
2022/06/16 04:46:37;;;;;;;0.00;0.00;;;;;;;;;;5012071;28;20046;-70
2022/06/16 04:49:06;;;;;;;0.10;0.10;;;;;;;;;;5012963;28;20046;-70
2022/06/16 04:51:34;;;;;;;0.10;0.10;;;;;;;;;;5022688;28;20081;-70
2022/06/16 04:54:03;;;;;;;0.10;0.10;;;;;;;;;;5032237;28;20578;-70
2022/06/16 04:56:31;;;;;;;0.10;0.10;;;;;;;;;;5018253;28;20078;-70
2022/06/16 04:59:01;;;;;;;0.00;0.00;;;;;;;;;;5011633;28;20152;-70
2022/06/16 05:01:29;;;;;;;0.00;0.00;;;;;;;;;;5012758;28;20137;-70
2022/06/16 05:03:57;;;;;;;0.43;0.43;;;;;;;;;;5012533;28;20306;-70
2022/06/16 05:06:26;;;;;;;0.00;0.00;;;;;;;;;;5012635;28;20109;-70
2022/06/16 05:08:54;;;;;;;0.10;0.10;;;;;;;;;;5011374;28;20602;-70
2022/06/16 05:11:23;;;;;;;0.00;0.00;;;;;;;;;;5020601;28;20073;-70
2022/06/16 05:13:51;;;;;;;0.00;0.00;;;;;;;;;;5021748;28;20085;-70
2022/06/16 05:16:21;;;;;;;0.00;0.00;;;;;;;;;;5011551;28;20093;-70
2022/06/16 05:18:49;;;;;;;0.00;0.00;;;;;;;;;;5011857;28;20080;-70
2022/06/16 05:21:18;;;;;;;0.03;0.03;;;;;;;;;;5012381;28;20136;-70
2022/06/16 05:23:46;;;;;;;0.10;0.10;;;;;;;;;;5012179;28;20153;-70
2022/06/16 05:26:15;;;;;;;0.00;0.00;;;;;;;;;;5011608;28;20088;-70
2022/06/16 05:28:43;;;;;;;0.15;0.15;;;;;;;;;;5011607;28;20053;-73
2022/06/16 05:31:12;;;;;;;0.30;0.30;;;;;;;;;;5012071;28;20058;-72
2022/06/16 05:33:42;;;;;;;0.10;0.10;;;;;;;;;;5011850;28;20053;-70
2022/06/16 05:36:12;;;;;;;0.00;0.00;;;;;;;;;;5011635;28;20137;-71
2022/06/16 05:38:40;;;;;;;0.30;0.30;;;;;;;;;;5011394;28;20089;-70
2022/06/16 05:41:12;;;;;;;0.08;0.08;;;;;;;;;;5011922;28;20141;-70
2022/06/16 05:43:41;;;;;;;0.00;0.00;;;;;;;;;;5011595;28;20482;-70
2022/06/16 05:46:15;;;;;;;0.00;0.00;;;;;;;;;;5011810;28;20176;-70
2022/06/16 05:48:45;;;;;;;0.03;0.03;;;;;;;;;;5011057;28;20046;-70
2022/06/16 05:51:14;;;;;;;0.00;0.00;;;;;;;;;;5019117;28;20107;-70
2022/06/16 05:53:43;;;;;;;0.00;0.00;;;;;;;;;;5037896;28;20132;-70
2022/06/16 05:56:12;;;;;;;0.00;0.00;;;;;;;;;;5051059;28;20504;-70
2022/06/16 05:58:41;;;;;;;0.00;0.00;;;;;;;;;;5050459;28;20136;-70
2022/06/16 06:01:11;;;;;;;0.00;0.00;;;;;;;;;;5051026;28;20088;-70
2022/06/16 06:03:40;;;;;;;0.00;0.00;;;;;;;;;;5049765;28;20102;-70
2022/06/16 06:06:10;;;;;;;0.00;0.00;;;;;;;;;;5025002;28;20552;-70
2022/06/16 06:17:01;;;;;;;5.47;1.30;;;;;;;;;;5034774;28;20488;-70
2022/06/16 06:19:31;;;;;;;0.00;0.00;;;;;;;;;;5035502;28;20565;-70
2022/06/16 06:22:05;;;;;;;0.00;0.00;;;;;;;;;;5023856;28;20050;-70
2022/06/16 06:24:35;;;;;;;0.00;0.00;;;;;;;;;;5032909;28;20081;-70
2022/06/16 06:27:05;;;;;;;0.00;0.00;;;;;;;;;;5025238;28;20145;-71
2022/06/16 06:29:34;;;;;;;0.32;0.25;;;;;;;;;;5015311;28;20476;-73
2022/06/16 06:32:02;;;;;;;0.00;0.00;;;;;;;;;;5015231;28;20050;-72
2022/06/16 06:34:31;;;;;;;0.43;0.43;;;;;;;;;;5015208;28;20085;-71
2022/06/16 06:37:01;;;;;;;0.00;0.00;;;;;;;;;;5014733;28;20138;-72
2022/06/16 06:39:29;;;;;;;0.30;0.30;;;;;;;;;;5014872;28;20525;-71
2022/06/16 06:41:57;;;;;;;0.00;0.00;;;;;;;;;;5037415;28;20095;-71
2022/06/16 06:44:26;;;;;;;0.00;0.00;;;;;;;;;;5033883;28;20085;-71
2022/06/16 06:46:54;;;;;;;0.00;0.00;;;;;;;;;;5034545;28;20104;-71
2022/06/16 06:49:23;;;;;;;0.10;0.10;;;;;;;;;;5034269;28;20371;-71
2022/06/16 06:51:51;;;;;;;0.22;0.22;;;;;;;;;;5034525;28;20133;-72
2022/06/16 06:54:21;;;;;;;0.45;0.45;;;;;;;;;;5041756;28;20088;-72
2022/06/16 06:56:50;;;;;;;0.00;0.00;;;;;;;;;;5028134;28;20129;-71
2022/06/16 06:59:20;;;;;;;0.00;0.00;;;;;;;;;;5034600;28;20092;-72
2022/06/16 07:01:48;;;;;;;0.00;0.00;;;;;;;;;;5034179;28;20164;-71
2022/06/16 07:04:17;;;;;;;0.00;0.00;;;;;;;;;;5034132;28;20048;-72
2022/06/16 07:06:46;;;;;;;0.00;0.00;;;;;;;;;;5034003;28;20057;-71
2022/06/16 07:09:16;;;;;;;0.08;0.08;;;;;;;;;;5034302;28;20560;-71
2022/06/16 07:11:46;;;;;;;0.00;0.00;;;;;;;;;;5044625;28;20041;-70
2022/06/16 07:14:15;;;;;;;0.47;0.47;;;;;;;;;;5034172;28;20486;-71
2022/06/16 07:16:44;;;;;;;0.45;0.45;;;;;;;;;;5033660;28;20088;-71
2022/06/16 07:19:17;;;;;;;0.00;0.00;;;;;;;;;;5034492;28;20050;-70
2022/06/16 07:21:45;;;;;;;0.22;0.22;;;;;;;;;;5033946;28;20045;-71
2022/06/16 07:24:14;;;;;;;0.05;0.05;;;;;;;;;;5034402;28;20056;-70
2022/06/16 07:26:42;;;;;;;0.65;0.65;;;;;;;;;;5040882;28;20065;-71
2022/06/16 07:29:12;;;;;;;0.00;0.00;;;;;;;;;;5049840;28;20083;-71
2022/06/16 07:31:40;;;;;;;0.10;0.10;;;;;;;;;;5034994;28;20133;-71
2022/06/16 07:34:09;;;;;;;0.38;0.38;;;;;;;;;;5035451;28;20085;-71
2022/06/16 07:36:37;;;;;;;0.00;0.00;;;;;;;;;;5034988;28;20045;-72
2022/06/16 07:39:06;;;;;;;2.17;0.70;;;;;;;;;;5034273;28;20103;-71
2022/06/16 07:41:38;;;;;;;0.00;0.00;;;;;;;;;;5033950;28;20084;-72
2022/06/16 07:44:07;;;;;;;0.30;0.30;;;;;;;;;;5033621;28;20046;-72
2022/06/16 07:46:38;;;;;;;0.20;0.20;;;;;;;;;;5032772;28;20120;-72
2022/06/16 07:49:07;;;;;;;0.43;0.43;;;;;;;;;;5033193;28;20053;-72
2022/06/16 07:51:35;;;;;;;0.00;0.00;;;;;;;;;;5053151;28;20053;-72
2022/06/16 07:54:12;;;;;;;0.00;0.00;;;;;;;;;;5072908;28;20049;-71
2022/06/16 07:57:00;;;;;;;0.88;0.75;;;;;;;;;;5072645;28;20483;-71
2022/06/16 07:59:29;;;;;;;0.15;0.15;;;;;;;;;;5073205;28;20154;-72
2022/06/16 08:01:59;;;;;;;0.32;0.32;;;;;;;;;;5072946;28;20080;-71
2022/06/16 08:04:28;;;;;;;0.10;0.10;;;;;;;;;;5041864;28;20073;-71
2022/06/16 08:07:00;;;;;;;0.03;0.03;;;;;;;;;;5032842;28;20073;-71
2022/06/16 08:09:31;;;;;;;0.00;0.00;;;;;;;;;;5032743;28;20057;-71
2022/06/16 08:12:08;;;;;;;0.25;0.25;;;;;;;;;;5047334;28;20378;-71
2022/06/16 08:14:39;;;;;;;0.35;0.35;;;;;;;;;;5052720;28;20473;-71
2022/06/16 08:17:11;;;;;;;0.00;0.00;;;;;;;;;;5051620;28;20079;-71
2022/06/16 08:19:39;;;;;;;0.00;0.00;;;;;;;;;;5051272;28;20044;-71
2022/06/16 08:22:08;;;;;;;0.10;0.10;;;;;;;;;;5032704;28;20084;-72
2022/06/16 08:24:37;;;;;;;0.00;0.00;;;;;;;;;;5032757;28;20092;-71
2022/06/16 08:27:06;;;;;;;0.17;0.17;;;;;;;;;;5031680;28;20088;-71
2022/06/16 08:29:36;;;;;;;0.00;0.00;;;;;;;;;;5032767;28;20100;-71
2022/06/16 08:32:05;;;;;;;0.22;0.22;;;;;;;;;;5032608;28;20107;-71
2022/06/16 08:34:35;;;;;;;0.00;0.00;;;;;;;;;;5032302;28;20081;-71
2022/06/16 08:37:03;;;;;;;1.23;1.13;;;;;;;;;;5031950;28;20072;-71
2022/06/16 08:39:33;;;;;;;0.00;0.00;;;;;;;;;;5032623;28;20061;-71
2022/06/16 08:42:04;;;;;;;0.22;0.22;;;;;;;;;;5032777;28;20057;-71
2022/06/16 08:44:35;;;;;;;0.98;0.90;;;;;;;;;;5032595;28;20061;-71
2022/06/16 08:47:06;;;;;;;0.00;0.00;;;;;;;;;;5031832;28;20050;-71
2022/06/16 08:49:39;;;;;;;0.22;0.22;;;;;;;;;;5032293;28;20054;-71
2022/06/16 08:52:13;;;;;;;0.00;0.00;;;;;;;;;;5046428;28;20055;-71
2022/06/16 08:54:48;;;;;;;0.20;0.20;;;;;;;;;;5042993;28;20054;-71
2022/06/16 08:57:20;;;;;;;0.00;0.00;;;;;;;;;;5031447;28;20069;-71
2022/06/16 08:59:51;;;;;;;0.10;0.10;;;;;;;;;;5031858;28;20571;-71
2022/06/16 09:02:24;;;;;;;0.63;0.63;;;;;;;;;;5032016;28;20448;-72
2022/06/16 09:04:59;;;;;;;2.45;0.85;;;;;;;;;;5031803;28;20084;-72
2022/06/16 09:07:38;;;;;;;0.10;0.10;;;;;;;;;;5031390;28;20045;-71
2022/06/16 09:10:18;;;;;;;0.00;0.00;;;;;;;;;;5031624;28;20469;-71
2022/06/16 09:13:03;;;;;;;1.00;0.82;;;;;;;;;;5031963;28;20136;-71
2022/06/16 09:15:35;;;;;;;0.82;0.80;;;;;;;;;;5031969;28;20056;-71
2022/06/16 09:18:11;;;;;;;0.10;0.10;;;;;;;;;;5031190;28;20049;-70
2022/06/16 09:20:46;;;;;;;0.00;0.00;;;;;;;;;;5031527;28;20492;-72
2022/06/16 09:23:20;;;;;;;0.00;0.00;;;;;;;;;;5031780;28;20128;-72
2022/06/16 09:25:55;;;;;;;0.00;0.00;;;;;;;;;;5031651;28;20579;-70
2022/06/16 09:28:28;;;;;;;0.15;0.15;;;;;;;;;;5031103;28;20041;-71
2022/06/16 09:30:59;;;;;;;1.23;0.30;;;;;;;;;;5031363;28;20153;-72
2022/06/16 09:33:30;;;;;;;0.10;0.10;;;;;;;;;;5031555;28;20107;-71
2022/06/16 09:36:01;;;;;;;0.10;0.10;;;;;;;;;;5030943;28;20554;-71
2022/06/16 09:38:33;;;;;;;0.00;0.00;;;;;;;;;;5031325;28;20136;-71
2022/06/16 09:42:31;;;;;;;0.55;0.52;;;;;;;;;;5040671;28;20509;-72
2022/06/16 09:43:56;;;;;;;0.00;0.00;;;;;;;;;;5051032;28;20057;-70
2022/06/16 09:46:30;;;;;;;0.70;0.70;;;;;;;;;;5043208;28;20106;-72
2022/06/16 09:49:00;;;;;;;0.00;0.00;;;;;;;;;;5050835;28;20617;-71
2022/06/16 09:51:32;;;;;;;0.00;0.00;;;;;;;;;;5059430;28;20052;-71
2022/06/16 09:54:03;;;;;;;0.10;0.10;;;;;;;;;;5070968;28;20055;-70
2022/06/16 09:56:33;;;;;;;0.35;0.35;;;;;;;;;;5071375;28;20102;-70
2022/06/16 09:59:04;;;;;;;0.55;0.55;;;;;;;;;;5070764;28;20131;-70
2022/06/16 10:01:37;;;;;;;0.52;0.32;;;;;;;;;;5071028;28;20074;-70
2022/06/16 10:04:06;;;;;;;0.20;0.20;;;;;;;;;;5050847;28;20131;-70
2022/06/16 10:06:40;;;;;;;0.00;0.00;;;;;;;;;;5050501;28;20048;-70
2022/06/16 10:09:18;;;;;;;0.73;0.73;;;;;;;;;;5051227;28;20045;-69
2022/06/16 10:11:53;;;;;;;0.00;0.00;;;;;;;;;;5053000;28;20045;-70
2022/06/16 10:14:23;;;;;;;0.00;0.00;;;;;;;;;;5071537;28;20440;-70
2022/06/16 10:16:54;;;;;;;0.65;0.35;;;;;;;;;;5070301;28;20144;-71
2022/06/16 10:19:23;;;;;;;0.10;0.10;;;;;;;;;;5058023;28;20111;-70
2022/06/16 10:21:53;;;;;;;0.00;0.00;;;;;;;;;;5058245;28;20106;-71
2022/06/16 10:24:25;;;;;;;0.20;0.20;;;;;;;;;;5071163;28;20066;-71
2022/06/16 10:26:55;;;;;;;0.00;0.00;;;;;;;;;;5056591;28;20119;-71
2022/06/16 10:29:24;;;;;;;0.00;0.00;;;;;;;;;;5050781;28;20052;-70
2022/06/16 10:31:54;;;;;;;0.00;0.00;;;;;;;;;;5050527;28;20132;-71
2022/06/16 10:34:31;;;;;;;0.20;0.20;;;;;;;;;;5051015;28;20055;-70
2022/06/16 10:37:03;;;;;;;0.25;0.25;;;;;;;;;;5038393;28;20057;-71
2022/06/16 10:39:36;;;;;;;0.15;0.15;;;;;;;;;;5031131;28;20129;-71
2022/06/16 10:42:08;;;;;;;0.20;0.20;;;;;;;;;;5031057;28;20050;-70
2022/06/16 10:44:36;;;;;;;0.00;0.00;;;;;;;;;;5030969;28;20137;-70
2022/06/16 10:47:08;;;;;;;0.03;0.03;;;;;;;;;;5030122;28;20128;-70
2022/06/16 10:49:39;;;;;;;0.52;0.45;;;;;;;;;;5030426;28;20052;-70
2022/06/16 10:52:11;;;;;;;0.05;0.05;;;;;;;;;;5045202;28;20531;-71
2022/06/16 10:54:45;;;;;;;0.43;0.43;;;;;;;;;;5026412;28;20065;-70
2022/06/16 10:57:18;;;;;;;0.00;0.00;;;;;;;;;;5034105;28;20057;-70
2022/06/16 10:59:48;;;;;;;0.52;0.52;;;;;;;;;;5034353;28;20505;-70
2022/06/16 11:02:21;;;;;;;0.00;0.00;;;;;;;;;;5050264;28;20049;-71
2022/06/16 11:04:52;;;;;;;0.00;0.00;;;;;;;;;;5054565;28;20052;-71
2022/06/16 11:07:22;;;;;;;0.45;0.45;;;;;;;;;;5053499;28;20581;-70
2022/06/16 11:09:51;;;;;;;0.32;0.32;;;;;;;;;;5044297;28;20569;-71
2022/06/16 11:12:21;;;;;;;0.00;0.00;;;;;;;;;;5051628;28;20052;-71
2022/06/16 11:14:54;;;;;;;0.65;0.60;;;;;;;;;;5055428;28;20048;-70
2022/06/16 11:17:24;;;;;;;0.10;0.10;;;;;;;;;;5055882;28;20053;-71
2022/06/16 11:19:53;;;;;;;0.00;0.00;;;;;;;;;;5056560;28;20077;-71
2022/06/16 11:22:29;;;;;;;0.17;0.17;;;;;;;;;;5055473;28;20087;-71
2022/06/16 11:25:00;;;;;;;0.25;0.25;;;;;;;;;;5053424;28;20404;-71
2022/06/16 11:27:29;;;;;;;0.10;0.10;;;;;;;;;;5040349;28;20056;-72
2022/06/16 11:29:57;;;;;;;0.00;0.00;;;;;;;;;;5033947;28;20552;-71
2022/06/16 11:32:28;;;;;;;0.05;0.05;;;;;;;;;;5033946;28;20049;-71
2022/06/16 11:34:57;;;;;;;0.03;0.03;;;;;;;;;;5033688;28;20085;-71
2022/06/16 11:37:36;;;;;;;0.00;0.00;;;;;;;;;;5033283;28;20060;-71
2022/06/16 11:40:12;;;;;;;0.05;0.05;;;;;;;;;;5036498;28;20049;-71
2022/06/16 11:42:46;;;;;;;0.35;0.35;;;;;;;;;;5053414;28;20071;-71
2022/06/16 11:45:18;;;;;;;0.38;0.38;;;;;;;;;;5032172;28;20452;-71
2022/06/16 11:47:49;;;;;;;0.40;0.40;;;;;;;;;;5032760;28;20136;-71
2022/06/16 11:50:21;;;;;;;0.08;0.08;;;;;;;;;;5033238;28;20080;-72
2022/06/16 11:52:54;;;;;;;0.00;0.00;;;;;;;;;;5033545;28;20094;-72
2022/06/16 11:55:28;;;;;;;0.13;0.13;;;;;;;;;;5033235;28;20053;-72
2022/06/16 11:58:03;;;;;;;0.00;0.00;;;;;;;;;;5032385;28;20080;-72
2022/06/16 12:00:34;;;;;;;0.00;0.00;;;;;;;;;;5033003;28;20045;-71
2022/06/16 12:03:34;;;;;;;0.95;0.90;;;;;;;;;;5032914;28;20409;-71
2022/06/16 12:06:13;;;;;;;0.17;0.17;;;;;;;;;;5032457;28;20108;-70
2022/06/16 12:09:01;;;;;;;0.15;0.15;;;;;;;;;;5031715;28;20501;-71
2022/06/16 12:11:35;;;;;;;0.20;0.20;;;;;;;;;;5057493;28;20233;-70
2022/06/16 12:14:26;;;;;;;13.90;1.38;;;;;;;;;;5053680;28;20062;-71
2022/06/16 12:16:58;;;;;;;0.25;0.00;;;;;;;;;;5043881;28;20132;-71
2022/06/16 12:19:33;;;;;;;0.00;0.00;;;;;;;;;;5038112;28;20092;-71
2022/06/16 12:22:03;;;;;;;0.00;0.00;;;;;;;;;;5050567;28;20143;-71
2022/06/16 12:24:38;;;;;;;0.00;0.00;;;;;;;;;;5070077;28;20048;-71
2022/06/16 12:27:08;;;;;;;0.20;0.20;;;;;;;;;;5052170;28;20456;-71
2022/06/16 12:29:41;;;;;;;0.10;0.10;;;;;;;;;;5032678;28;20409;-71
2022/06/16 12:32:14;;;;;;;0.20;0.20;;;;;;;;;;5032585;28;20081;-71
2022/06/16 12:34:47;;;;;;;0.25;0.25;;;;;;;;;;5033008;28;20072;-72
2022/06/16 12:37:18;;;;;;;0.00;0.00;;;;;;;;;;5032273;28;20046;-71
2022/06/16 12:39:56;;;;;;;0.22;0.22;;;;;;;;;;5032288;28;20064;-71
2022/06/16 12:42:26;;;;;;;0.17;0.17;;;;;;;;;;5033051;28;20085;-71
2022/06/16 12:44:58;;;;;;;0.13;0.13;;;;;;;;;;5024934;28;20056;-71
2022/06/16 12:47:29;;;;;;;0.10;0.10;;;;;;;;;;5031888;28;20077;-72
2022/06/16 12:50:01;;;;;;;0.13;0.13;;;;;;;;;;5032096;28;20056;-71
2022/06/16 12:52:31;;;;;;;0.25;0.25;;;;;;;;;;5034589;28;20050;-70
2022/06/16 12:55:04;;;;;;;0.00;0.00;;;;;;;;;;5044387;28;20049;-71
2022/06/16 12:57:35;;;;;;;0.20;0.20;;;;;;;;;;5052013;28;20065;-71
2022/06/16 13:00:09;;;;;;;0.10;0.10;;;;;;;;;;5052012;28;20481;-75
2022/06/16 13:02:41;;;;;;;0.10;0.10;;;;;;;;;;5051774;28;20057;-71
2022/06/16 13:05:12;;;;;;;0.28;0.10;;;;;;;;;;5052191;28;20053;-71
2022/06/16 13:07:43;;;;;;;0.20;0.20;;;;;;;;;;5051611;28;20127;-72
2022/06/16 13:10:14;;;;;;;0.20;0.20;;;;;;;;;;5038384;28;20390;-71
2022/06/16 13:12:44;;;;;;;0.10;0.10;;;;;;;;;;5050976;28;20543;-71
2022/06/16 13:15:16;;;;;;;0.08;0.08;;;;;;;;;;5051928;28;20401;-71
2022/06/16 13:17:50;;;;;;;0.05;0.05;;;;;;;;;;5051157;28;20485;-70
2022/06/16 13:20:20;;;;;;;0.00;0.00;;;;;;;;;;5051310;28;20053;-71
2022/06/16 13:22:51;;;;;;;0.05;0.05;;;;;;;;;;5051675;28;20052;-71
2022/06/16 13:25:35;;;;;;;0.08;0.08;;;;;;;;;;5051528;28;20088;-71
2022/06/16 13:28:06;;;;;;;0.10;0.10;;;;;;;;;;5031785;28;20537;-70
2022/06/16 13:30:39;;;;;;;0.35;0.20;;;;;;;;;;5032193;28;20053;-71
2022/06/16 13:33:20;;;;;;;0.10;0.10;;;;;;;;;;5031544;28;20138;-71
2022/06/16 13:35:54;;;;;;;0.17;0.17;;;;;;;;;;5031458;28;20595;-71
2022/06/16 13:38:25;;;;;;;0.35;0.35;;;;;;;;;;5031060;28;20115;-71
2022/06/16 13:41:08;;;;;;;0.20;0.20;;;;;;;;;;5039218;28;20088;-71
2022/06/16 13:43:38;;;;;;;0.63;0.63;;;;;;;;;;5023446;28;20124;-71
2022/06/16 13:46:07;;;;;;;0.00;0.00;;;;;;;;;;5031538;28;20132;-71
2022/06/16 13:48:37;;;;;;;0.32;0.32;;;;;;;;;;5030737;28;20555;-71
2022/06/16 13:51:24;;;;;;;0.38;0.38;;;;;;;;;;5043053;28;20131;-72
2022/06/16 13:53:52;;;;;;;0.57;0.47;;;;;;;;;;5070778;28;20060;-72
2022/06/16 13:56:29;;;;;;;0.10;0.10;;;;;;;;;;5070835;28;20099;-71
2022/06/16 13:59:24;;;;;;;0.10;0.10;;;;;;;;;;5052474;28;20134;-70
2022/06/16 14:02:07;;;;;;;0.25;0.25;;;;;;;;;;5032910;28;20088;-70
2022/06/16 14:04:37;;;;;;;0.13;0.13;;;;;;;;;;5031102;28;20489;-72
2022/06/16 14:07:08;;;;;;;0.90;0.47;;;;;;;;;;5030249;28;20092;-71
2022/06/16 14:09:38;;;;;;;0.10;0.10;;;;;;;;;;5031218;28;20060;-71
2022/06/16 14:12:16;;;;;;;0.85;0.85;;;;;;;;;;5045126;28;20417;-70
2022/06/16 14:15:03;;;;;;;3.70;0.10;;;;;;;;;;5050909;28;20535;-71
2022/06/16 14:17:34;;;;;;;0.00;0.00;;;;;;;;;;5042743;28;20041;-71
2022/06/16 14:20:06;;;;;;;0.00;0.00;;;;;;;;;;5031307;28;20103;-71
2022/06/16 14:22:36;;;;;;;0.20;0.20;;;;;;;;;;5031654;28;20136;-71
2022/06/16 14:25:07;;;;;;;0.08;0.08;;;;;;;;;;5030879;28;20046;-72
2022/06/16 14:27:41;;;;;;;0.20;0.20;;;;;;;;;;5030137;28;20084;-70
2022/06/16 14:30:12;;;;;;;0.47;0.47;;;;;;;;;;5031309;28;20081;-71
2022/06/16 14:32:46;;;;;;;0.30;0.30;;;;;;;;;;5035439;28;20481;-72
2022/06/16 14:35:17;;;;;;;0.00;0.00;;;;;;;;;;5034915;28;20611;-72
2022/06/16 14:37:48;;;;;;;0.30;0.30;;;;;;;;;;5034098;28;20057;-72
2022/06/16 14:40:19;;;;;;;0.00;0.00;;;;;;;;;;5034845;28;20100;-72
2022/06/16 14:42:48;;;;;;;0.60;0.60;;;;;;;;;;5034741;28;20053;-72
2022/06/16 14:45:21;;;;;;;0.57;0.55;;;;;;;;;;5034933;28;20085;-72
2022/06/16 14:47:54;;;;;;;0.00;0.00;;;;;;;;;;5034089;28;20045;-72
2022/06/16 14:50:25;;;;;;;0.00;0.00;;;;;;;;;;5034752;28;20107;-71
2022/06/16 14:52:55;;;;;;;0.13;0.13;;;;;;;;;;5036292;28;20115;-70
2022/06/16 14:55:30;;;;;;;0.00;0.00;;;;;;;;;;5015462;28;20053;-71
2022/06/16 14:58:03;;;;;;;0.20;0.20;;;;;;;;;;5014869;28;20074;-72
2022/06/16 15:00:33;;;;;;;0.00;0.00;;;;;;;;;;5016207;28;20046;-72
2022/06/16 15:03:06;;;;;;;0.10;0.10;;;;;;;;;;5016541;28;20042;-72
2022/06/16 15:05:36;;;;;;;0.30;0.30;;;;;;;;;;5016499;28;20474;-73
2022/06/16 15:08:06;;;;;;;0.47;0.47;;;;;;;;;;5016235;28;20125;-71
2022/06/16 15:10:35;;;;;;;0.15;0.15;;;;;;;;;;5016031;28;20085;-72
2022/06/16 15:13:05;;;;;;;0.40;0.40;;;;;;;;;;5034124;28;20108;-72
2022/06/16 15:15:34;;;;;;;4.57;0.55;;;;;;;;;;5034562;28;20053;-71
2022/06/16 15:18:10;;;;;;;0.17;0.17;;;;;;;;;;5033638;28;20064;-71
2022/06/16 15:20:41;;;;;;;0.35;0.35;;;;;;;;;;5033486;28;20576;-72